Time;durP1;ratioP1;P1;durP2;ratioP2;P2;SDS_P1;SDS_P2;PMS_P1;PMS_P2;Temp;Humidity;BMP_temperature;BMP_pressure;BME280_temperature;BME280_humidity;BME280_pressure;Samples;Min_cycle;Max_cycle;Signal;HPM_P1;HPM_P2
2022/06/28 00:02:26;;;;;;;3.60;3.30;;;22.50;39.30;;;;;;10442654;28;20232;-72
2022/06/28 00:07:29;;;;;;;3.40;3.20;;;22.50;39.90;;;;;;10442170;28;20285;-72
2022/06/28 00:12:33;;;;;;;3.37;3.17;;;22.40;39.30;;;;;;10408666;28;20264;-73
2022/06/28 00:17:37;;;;;;;3.80;3.50;;;22.30;39.50;;;;;;10404727;28;20592;-72
2022/06/28 00:22:41;;;;;;;3.93;3.17;;;22.10;40.30;;;;;;10442518;28;20316;-73
2022/06/28 00:27:45;;;;;;;3.90;3.60;;;22.10;39.80;;;;;;10446013;28;20232;-72
2022/06/28 00:32:49;;;;;;;3.43;3.23;;;22.10;40.10;;;;;;10445985;28;20767;-72
2022/06/28 00:37:52;;;;;;;4.37;3.60;;;22.10;40.40;;;;;;10405488;28;20236;-72
2022/06/28 00:42:56;;;;;;;3.43;3.23;;;22.10;39.90;;;;;;10410069;28;20260;-72
2022/06/28 00:48:00;;;;;;;3.67;3.40;;;22.00;39.70;;;;;;10412093;28;20233;-72
2022/06/28 00:53:06;;;;;;;3.30;3.10;;;21.90;40.60;;;;;;10428461;28;20613;-73
2022/06/28 00:58:09;;;;;;;3.30;3.00;;;21.70;40.40;;;;;;10452950;28;20235;-73
2022/06/28 01:03:16;;;;;;;2.90;2.70;;;21.70;40.10;;;;;;10434065;28;20229;-72
2022/06/28 01:08:20;;;;;;;3.50;3.20;;;21.70;41.00;;;;;;10410966;28;20261;-71
2022/06/28 01:13:23;;;;;;;2.93;2.73;;;21.80;40.50;;;;;;10410953;28;20722;-73
2022/06/28 01:18:28;;;;;;;3.57;3.37;;;21.80;40.30;;;;;;10415723;28;20233;-72
2022/06/28 01:23:33;;;;;;;3.50;3.20;;;21.80;40.80;;;;;;10410769;28;20230;-72
2022/06/28 01:28:36;;;;;;;3.23;2.93;;;21.80;40.70;;;;;;10410486;28;20226;-72
2022/06/28 01:33:40;;;;;;;3.53;3.33;;;21.80;40.30;;;;;;10410624;28;20947;-73
2022/06/28 01:38:45;;;;;;;3.67;3.37;;;21.80;40.40;;;;;;10410079;28;20581;-73
2022/06/28 01:43:48;;;;;;;4.10;3.77;;;21.80;40.70;;;;;;10433287;28;20239;-73
2022/06/28 01:48:51;;;;;;;4.03;3.73;;;21.80;40.30;;;;;;10450957;28;20626;-72
2022/06/28 01:53:56;;;;;;;4.00;3.80;;;21.70;40.10;;;;;;10409841;28;20360;-72
2022/06/28 01:58:59;;;;;;;4.47;3.93;;;21.60;41.00;;;;;;10409030;28;20705;-72
2022/06/28 02:04:18;;;;;;;4.30;4.00;;;21.50;40.60;;;;;;10409000;28;20238;-73
2022/06/28 02:09:23;;;;;;;5.70;3.80;;;21.50;41.70;;;;;;10408924;28;20283;-73
2022/06/28 02:14:26;;;;;;;5.63;4.30;;;21.40;41.50;;;;;;10408760;28;20256;-72
2022/06/28 02:19:29;;;;;;;4.97;4.10;;;21.30;41.10;;;;;;10447579;28;20233;-72
2022/06/28 02:24:34;;;;;;;4.27;3.97;;;21.30;41.30;;;;;;10409989;28;20236;-75
2022/06/28 02:29:37;;;;;;;3.87;3.67;;;21.20;42.20;;;;;;10421502;28;20232;-72
2022/06/28 02:45:25;;;;;;;4.13;3.83;;;21.30;42.50;;;;;;10440255;28;20761;-72
2022/06/28 02:50:29;;;;;;;5.00;4.10;;;21.40;42.40;;;;;;10448819;28;20225;-72
2022/06/28 02:55:34;;;;;;;4.53;4.20;;;21.40;42.00;;;;;;10448206;28;20231;-72
2022/06/28 03:00:37;;;;;;;3.93;3.43;;;21.40;42.40;;;;;;10423199;28;20229;-72
2022/06/28 03:05:40;;;;;;;3.90;3.50;;;21.30;41.70;;;;;;10453446;28;20238;-72
2022/06/28 03:10:45;;;;;;;6.40;4.17;;;21.30;41.60;;;;;;10488990;28;20258;-72
2022/06/28 03:15:48;;;;;;;4.17;3.87;;;21.30;42.80;;;;;;10417226;28;20239;-72
2022/06/28 03:20:54;;;;;;;4.57;4.17;;;21.30;42.20;;;;;;10406156;28;20230;-72
2022/06/28 03:25:59;;;;;;;4.27;3.97;;;21.30;42.60;;;;;;10405966;28;20779;-72
2022/06/28 03:31:02;;;;;;;4.47;4.10;;;21.40;42.70;;;;;;10406351;28;20336;-73
2022/06/28 03:36:05;;;;;;;4.23;3.83;;;21.40;42.20;;;;;;10439409;28;20239;-72
2022/06/28 03:41:10;;;;;;;4.80;4.13;;;21.30;41.90;;;;;;10446983;28;20232;-72
2022/06/28 03:46:13;;;;;;;5.33;4.83;;;21.30;42.30;;;;;;10447094;28;20243;-72
2022/06/28 03:51:17;;;;;;;5.90;4.40;;;21.30;41.90;;;;;;10446873;28;20675;-72
2022/06/28 03:56:22;;;;;;;4.40;3.67;;;21.20;42.20;;;;;;10446821;28;20256;-72
2022/06/28 04:01:25;;;;;;;4.63;4.27;;;21.10;42.30;;;;;;10446544;28;20221;-73
2022/06/28 04:06:29;;;;;;;4.90;4.50;;;21.10;42.10;;;;;;10422494;28;20831;-72
2022/06/28 04:11:33;;;;;;;5.13;4.33;;;21.00;42.30;;;;;;10446164;28;20225;-72
2022/06/28 04:16:37;;;;;;;5.43;5.03;;;21.00;43.10;;;;;;10449537;28;20758;-73
2022/06/28 04:21:40;;;;;;;5.47;4.77;;;21.00;42.70;;;;;;10440525;28;20236;-72
2022/06/28 04:26:45;;;;;;;6.80;4.67;;;20.90;42.90;;;;;;10419134;28;20720;-72
2022/06/28 04:31:48;;;;;;;6.03;5.37;;;20.90;43.50;;;;;;10454101;28;20229;-74
2022/06/28 04:36:51;;;;;;;5.50;5.00;;;20.90;43.10;;;;;;10447095;28;20320;-72
2022/06/28 04:41:56;;;;;;;5.57;5.00;;;20.90;44.10;;;;;;10445503;28;20260;-72
2022/06/28 04:46:59;;;;;;;5.70;4.67;;;20.90;44.20;;;;;;10445248;28;20735;-71
2022/06/28 04:52:03;;;;;;;4.43;4.13;;;20.90;43.80;;;;;;10441774;28;20221;-73
2022/06/28 04:57:07;;;;;;;4.73;4.33;;;20.90;43.80;;;;;;10435970;28;20235;-73
2022/06/28 05:02:11;;;;;;;5.13;4.73;;;21.00;44.40;;;;;;10439093;28;20227;-72
2022/06/28 05:07:15;;;;;;;5.00;4.60;;;21.00;43.90;;;;;;10432334;28;20283;-73
2022/06/28 05:12:19;;;;;;;4.53;4.13;;;21.00;44.20;;;;;;10444875;28;20229;-74
2022/06/28 05:17:25;;;;;;;5.00;4.60;;;21.10;44.50;;;;;;10433516;28;20576;-72
2022/06/28 05:22:29;;;;;;;5.13;4.73;;;21.20;44.10;;;;;;10436699;28;20220;-72
2022/06/28 05:27:33;;;;;;;5.03;4.63;;;21.20;44.10;;;;;;10445931;28;20709;-73
2022/06/28 05:32:36;;;;;;;6.10;4.77;;;21.20;44.80;;;;;;10445918;28;20224;-72
2022/06/28 05:37:40;;;;;;;4.97;4.57;;;21.30;44.50;;;;;;10444733;28;20287;-72
2022/06/28 05:42:45;;;;;;;5.27;4.83;;;21.30;44.10;;;;;;10448066;28;20225;-72
2022/06/28 05:47:48;;;;;;;4.90;4.50;;;21.30;44.80;;;;;;10434878;28;20233;-74
2022/06/28 05:52:52;;;;;;;4.13;3.93;;;21.20;44.60;;;;;;10434012;28;20327;-73
2022/06/28 05:57:56;;;;;;;4.90;4.50;;;21.30;44.60;;;;;;10448734;28;20601;-73
2022/06/28 06:03:00;;;;;;;5.00;4.50;;;21.30;45.30;;;;;;10444359;28;20229;-73
2022/06/28 06:08:03;;;;;;;5.33;4.63;;;21.40;45.00;;;;;;10431731;28;20880;-72
2022/06/28 06:13:08;;;;;;;5.03;4.57;;;21.50;45.20;;;;;;10439957;28;20241;-73
2022/06/28 06:18:11;;;;;;;5.10;4.70;;;21.70;45.40;;;;;;10444283;28;20234;-73
2022/06/28 06:23:14;;;;;;;4.80;4.40;;;21.80;44.40;;;;;;10441602;28;20237;-72
2022/06/28 06:28:18;;;;;;;4.40;4.10;;;21.90;44.30;;;;;;10431024;28;20253;-72
2022/06/28 06:33:22;;;;;;;4.90;4.47;;;22.00;44.50;;;;;;10432771;28;20637;-72
2022/06/28 06:38:25;;;;;;;5.00;4.50;;;22.10;44.20;;;;;;10442038;28;20236;-72
2022/06/28 06:43:30;;;;;;;5.00;4.70;;;22.20;44.30;;;;;;10431174;28;20236;-72
2022/06/28 06:48:33;;;;;;;4.70;4.40;;;22.30;44.50;;;;;;10441412;28;20243;-72
2022/06/28 06:53:36;;;;;;;5.60;5.30;;;22.40;44.00;;;;;;10434843;28;21124;-72
2022/06/28 06:58:42;;;;;;;5.70;5.30;;;22.40;43.80;;;;;;10432283;28;20312;-72
2022/06/28 07:03:45;;;;;;;7.07;6.57;;;22.50;43.90;;;;;;10432511;28;20237;-72
2022/06/28 07:08:48;;;;;;;7.80;7.20;;;22.50;43.70;;;;;;10436873;28;20732;-72
2022/06/28 07:13:53;;;;;;;7.57;7.07;;;22.50;43.70;;;;;;10433891;28;20235;-72
2022/06/28 07:18:56;;;;;;;7.60;7.00;;;22.60;43.80;;;;;;10430833;28;20224;-72
2022/06/28 07:24:01;;;;;;;7.50;7.00;;;22.70;43.60;;;;;;10431234;28;20597;-72
2022/06/28 07:29:06;;;;;;;8.23;7.63;;;22.80;43.90;;;;;;10431496;28;20241;-72
2022/06/28 07:34:15;;;;;;;8.87;8.27;;;22.90;43.60;;;;;;10430102;28;20243;-72
2022/06/28 07:39:19;;;;;;;9.20;8.53;;;23.00;43.60;;;;;;10426787;28;20592;-72
2022/06/28 07:44:23;;;;;;;8.83;8.23;;;23.10;43.50;;;;;;10430562;28;20236;-72
2022/06/28 07:52:33;;;;;;;8.87;8.27;;;23.10;44.20;;;;;;10434380;28;20727;-72
2022/06/28 07:54:51;;;;;;;9.70;8.90;;;23.30;43.70;;;;;;10435990;28;20240;-72
2022/06/28 07:59:55;;;;;;;10.80;9.90;;;23.40;43.10;;;;;;10431214;28;20764;-72
2022/06/28 08:04:59;;;;;;;10.20;9.50;;;23.50;43.40;;;;;;10426529;28;20236;-72
2022/06/28 08:10:02;;;;;;;9.67;8.97;;;23.60;43.20;;;;;;10431538;28;20916;-72
2022/06/28 08:15:08;;;;;;;8.97;8.37;;;23.70;43.30;;;;;;10428573;28;20240;-72
2022/06/28 08:20:12;;;;;;;8.27;7.67;;;23.80;42.60;;;;;;10427691;28;20235;-72
2022/06/28 08:25:15;;;;;;;8.00;7.50;;;23.90;42.60;;;;;;10425957;28;20231;-72
2022/06/28 08:30:25;;;;;;;8.17;7.57;;;24.00;42.70;;;;;;10437046;28;20265;-73
2022/06/28 08:35:29;;;;;;;7.37;6.97;;;24.20;42.40;;;;;;10435418;28;20225;-72
2022/06/28 08:40:32;;;;;;;6.43;6.00;;;24.30;42.40;;;;;;10421634;28;20601;-72
2022/06/28 08:45:38;;;;;;;6.00;5.60;;;24.40;42.20;;;;;;10433704;28;20236;-72
2022/06/28 08:50:42;;;;;;;6.13;5.73;;;24.50;40.90;;;;;;10426076;28;20233;-72
2022/06/28 08:55:48;;;;;;;5.27;4.77;;;24.60;40.80;;;;;;10425075;28;20327;-73
2022/06/28 09:00:52;;;;;;;5.13;4.80;;;24.60;41.80;;;;;;10428103;28;20225;-72
2022/06/28 09:05:56;;;;;;;3.93;3.63;;;24.80;40.70;;;;;;10446835;28;20232;-72
2022/06/28 09:10:59;;;;;;;3.47;3.27;;;24.90;40.80;;;;;;10432328;28;20331;-72
2022/06/28 09:16:05;;;;;;;2.90;2.70;;;25.10;41.00;;;;;;10438407;28;20235;-73
2022/06/28 09:21:10;;;;;;;3.00;2.80;;;25.20;40.00;;;;;;10435937;28;20225;-72
2022/06/28 09:26:15;;;;;;;3.07;2.87;;;25.40;40.50;;;;;;10442038;28;20241;-72
2022/06/28 09:31:22;;;;;;;3.40;2.60;;;25.60;39.50;;;;;;10439471;28;20225;-72
2022/06/28 09:36:25;;;;;;;2.90;2.80;;;25.80;39.20;;;;;;10436508;28;20282;-72
2022/06/28 09:41:30;;;;;;;2.40;2.20;;;26.00;39.50;;;;;;10431796;28;20231;-72
2022/06/28 09:46:35;;;;;;;2.50;2.40;;;26.10;38.90;;;;;;10438796;28;20236;-72
2022/06/28 09:51:39;;;;;;;2.43;2.23;;;26.20;38.50;;;;;;10439368;28;20229;-72
2022/06/28 09:56:44;;;;;;;2.30;2.10;;;26.40;38.70;;;;;;10432024;28;20266;-72
2022/06/28 10:01:49;;;;;;;2.30;2.10;;;26.40;38.10;;;;;;10433171;28;20240;-72
2022/06/28 10:06:52;;;;;;;2.50;2.30;;;26.50;37.30;;;;;;10446122;28;20618;-72
2022/06/28 10:17:33;;;;;;;2.57;2.47;;;26.70;37.50;;;;;;10431166;28;20634;-72
2022/06/28 10:22:36;;;;;;;2.23;2.13;;;26.70;36.40;;;;;;10433759;28;20230;-72
2022/06/28 10:27:45;;;;;;;2.70;2.50;;;26.70;37.30;;;;;;10424128;28;20721;-72
2022/06/28 10:32:51;;;;;;;3.00;2.80;;;26.70;36.30;;;;;;10438343;28;20577;-72
2022/06/28 10:38:16;;;;;;;3.10;2.90;;;26.80;36.50;;;;;;10411433;28;20281;-72
2022/06/28 10:43:45;;;;;;;3.23;2.90;;;26.80;36.00;;;;;;10414404;28;20222;-71
2022/06/28 10:49:10;;;;;;;2.83;2.67;;;26.80;36.50;;;;;;10420455;28;20722;-71
2022/06/28 10:54:17;;;;;;;2.90;2.70;;;26.80;36.10;;;;;;10429474;28;20225;-74
2022/06/28 10:59:34;;;;;;;2.43;2.30;;;26.90;36.00;;;;;;10423183;28;20265;-72
2022/06/28 11:04:38;;;;;;;2.00;1.90;;;26.90;36.50;;;;;;10421742;28;20597;-72
2022/06/28 11:10:06;;;;;;;2.10;2.00;;;27.00;35.70;;;;;;10425884;28;20232;-74
2022/06/28 11:15:11;;;;;;;2.27;2.07;;;27.00;35.80;;;;;;10423411;28;20227;-73
2022/06/28 11:20:21;;;;;;;2.43;2.10;;;27.10;36.20;;;;;;10423474;28;20221;-75
2022/06/28 11:27:19;;;;;;;2.00;1.90;;;27.30;34.90;;;;;;10424254;28;20236;-74
2022/06/28 11:30:53;;;;;;;2.10;2.00;;;27.40;35.00;;;;;;10431874;28;20329;-75
2022/06/28 11:36:01;;;;;;;2.20;2.00;;;27.50;34.80;;;;;;10421515;28;20225;-74
2022/06/28 11:41:04;;;;;;;2.00;1.90;;;27.50;33.10;;;;;;10421581;28;20243;-74
2022/06/28 11:46:09;;;;;;;2.60;2.30;;;27.50;35.10;;;;;;10419508;28;20238;-75
2022/06/28 11:51:26;;;;;;;3.00;2.70;;;27.50;34.70;;;;;;10414299;28;20651;-75
2022/06/28 11:56:42;;;;;;;3.00;2.80;;;27.40;34.50;;;;;;10416484;28;20266;-74
2022/06/28 12:01:46;;;;;;;2.80;2.70;;;27.30;34.70;;;;;;10431165;28;20238;-73
2022/06/28 12:06:51;;;;;;;2.87;2.77;;;27.20;35.00;;;;;;10438022;28;20235;-73
2022/06/28 12:11:56;;;;;;;3.27;3.07;;;27.20;34.70;;;;;;10433443;28;20236;-75
2022/06/28 12:17:01;;;;;;;3.20;3.00;;;27.10;35.00;;;;;;10439196;28;20225;-72
2022/06/28 12:22:08;;;;;;;3.07;2.80;;;27.00;34.90;;;;;;10436036;28;20233;-74
2022/06/28 12:27:12;;;;;;;2.90;2.70;;;27.00;35.00;;;;;;10439091;28;20229;-74
2022/06/28 12:32:15;;;;;;;3.23;2.70;;;26.90;35.40;;;;;;10432254;28;20225;-74
2022/06/28 12:37:40;;;;;;;3.33;3.13;;;26.90;35.80;;;;;;10440967;28;20244;-74
2022/06/28 12:42:43;;;;;;;3.17;2.87;;;26.90;35.30;;;;;;10432305;28;20224;-74
2022/06/28 12:47:46;;;;;;;3.20;3.00;;;26.90;35.30;;;;;;10434773;28;20240;-74
2022/06/28 12:52:51;;;;;;;3.30;2.80;;;26.90;35.30;;;;;;10437837;28;20243;-75
2022/06/28 12:57:54;;;;;;;2.93;2.57;;;26.90;35.00;;;;;;10436257;28;20232;-74
2022/06/28 13:02:57;;;;;;;3.63;3.07;;;26.80;35.00;;;;;;10434493;28;20225;-74
2022/06/28 13:08:03;;;;;;;2.90;2.60;;;26.90;35.10;;;;;;10436412;28;20228;-74
2022/06/28 13:13:07;;;;;;;2.73;2.53;;;26.90;34.80;;;;;;10441148;28;20316;-75
2022/06/28 13:18:10;;;;;;;2.77;2.60;;;26.90;35.00;;;;;;10430502;28;20246;-74
2022/06/28 13:23:15;;;;;;;3.10;2.90;;;27.00;34.90;;;;;;10418447;28;20225;-75
2022/06/28 13:28:19;;;;;;;2.97;2.83;;;27.10;34.70;;;;;;10433806;28;20233;-75
2022/06/28 13:33:22;;;;;;;2.67;2.47;;;27.10;34.40;;;;;;10444627;28;20237;-75
2022/06/28 13:38:26;;;;;;;3.20;2.90;;;27.20;34.30;;;;;;10431686;28;20270;-75
2022/06/28 13:43:36;;;;;;;3.00;2.90;;;27.20;34.30;;;;;;10427083;28;20712;-75
2022/06/28 13:48:39;;;;;;;2.70;2.60;;;27.20;34.00;;;;;;10441339;28;20316;-75
2022/06/28 13:53:48;;;;;;;3.67;2.63;;;27.30;34.30;;;;;;10431004;28;20709;-75
2022/06/28 13:58:51;;;;;;;2.77;2.67;;;27.20;34.10;;;;;;10424445;28;20583;-74
2022/06/28 14:03:54;;;;;;;3.40;3.10;;;27.30;34.40;;;;;;10442148;28;20225;-75
2022/06/28 14:08:59;;;;;;;2.90;2.80;;;27.30;34.20;;;;;;10429919;28;20245;-75
2022/06/28 14:14:02;;;;;;;3.00;2.80;;;27.30;34.00;;;;;;10439167;28;20225;-75
2022/06/28 14:19:05;;;;;;;4.50;2.90;;;27.40;34.30;;;;;;10456805;28;20756;-75
2022/06/28 14:24:10;;;;;;;3.60;3.30;;;27.40;33.80;;;;;;10439510;28;20559;-74
2022/06/28 14:29:13;;;;;;;3.53;3.23;;;27.50;33.40;;;;;;10425397;28;20327;-74
2022/06/28 14:34:17;;;;;;;3.50;3.20;;;27.50;33.80;;;;;;10424675;28;20233;-74
2022/06/28 14:39:28;;;;;;;3.07;2.87;;;27.50;34.10;;;;;;10423776;28;20238;-74
2022/06/28 14:44:32;;;;;;;3.27;3.13;;;27.60;33.90;;;;;;10436291;28;20225;-73
2022/06/28 14:49:35;;;;;;;3.40;3.03;;;27.60;33.80;;;;;;10421599;28;20317;-74
2022/06/28 14:54:40;;;;;;;3.27;3.07;;;27.60;33.90;;;;;;10452934;28;20700;-74
2022/06/28 14:59:43;;;;;;;3.37;3.17;;;27.60;33.50;;;;;;10440322;28;20600;-74
2022/06/28 15:04:46;;;;;;;3.17;2.97;;;27.60;33.70;;;;;;10431612;28;20225;-74
2022/06/28 15:09:51;;;;;;;3.33;3.13;;;27.70;33.70;;;;;;10426608;28;20234;-74
2022/06/28 15:14:54;;;;;;;3.70;3.50;;;27.70;33.10;;;;;;10438077;28;20246;-75
2022/06/28 15:19:58;;;;;;;3.30;3.10;;;27.70;34.10;;;;;;10433809;28;20589;-76
2022/06/28 15:35:43;;;;;;;3.27;3.03;;;27.80;33.30;;;;;;10435940;28;20229;-75
2022/06/28 15:40:48;;;;;;;3.00;2.70;;;27.80;33.10;;;;;;10445199;28;20235;-75
2022/06/28 15:45:52;;;;;;;3.37;3.17;;;27.80;33.10;;;;;;10436639;28;20232;-75
2022/06/28 15:50:55;;;;;;;3.60;3.40;;;27.80;33.10;;;;;;10441052;28;20599;-75
2022/06/28 15:56:00;;;;;;;3.50;3.20;;;27.90;33.30;;;;;;10434374;28;20303;-75
2022/06/28 16:01:04;;;;;;;3.50;3.30;;;27.90;33.00;;;;;;10438079;28;20794;-75
2022/06/28 16:06:07;;;;;;;3.70;3.50;;;27.90;33.00;;;;;;10425454;28;20217;-74
2022/06/28 16:11:12;;;;;;;3.43;3.23;;;27.90;33.10;;;;;;10429326;28;20698;-75
2022/06/28 16:16:15;;;;;;;3.67;3.37;;;27.90;33.10;;;;;;10440181;28;20224;-75
2022/06/28 16:21:19;;;;;;;3.30;3.10;;;27.90;33.40;;;;;;10439762;28;20225;-75
2022/06/28 16:26:23;;;;;;;3.70;3.50;;;27.90;33.70;;;;;;10430474;28;20233;-75
2022/06/28 16:31:27;;;;;;;3.80;3.60;;;27.90;33.70;;;;;;10433215;28;20316;-75
2022/06/28 16:36:30;;;;;;;4.00;3.67;;;27.90;33.60;;;;;;10436882;28;20572;-75
2022/06/28 16:41:35;;;;;;;5.07;3.37;;;27.90;33.20;;;;;;10433178;28;20218;-75
2022/06/28 16:46:38;;;;;;;3.37;3.10;;;27.80;33.20;;;;;;10436545;28;20236;-75
2022/06/28 16:51:42;;;;;;;3.30;3.10;;;27.80;33.70;;;;;;10430825;28;20286;-75
2022/06/28 16:56:47;;;;;;;3.77;3.57;;;27.70;33.60;;;;;;10433685;28;20240;-75
2022/06/28 17:01:50;;;;;;;3.50;3.30;;;27.70;33.40;;;;;;10436275;28;20221;-75
2022/06/28 17:12:15;;;;;;;3.47;3.27;;;27.60;33.40;;;;;;10436065;28;20218;-75
2022/06/28 17:17:19;;;;;;;3.67;3.37;;;27.50;33.50;;;;;;10439230;28;20708;-75
2022/06/28 17:22:24;;;;;;;3.70;3.50;;;27.40;33.70;;;;;;10438185;28;20305;-75
2022/06/28 17:27:29;;;;;;;3.67;3.43;;;27.40;34.20;;;;;;10435940;28;20580;-75
2022/06/28 17:32:32;;;;;;;6.10;5.60;;;27.40;34.30;;;;;;10439930;28;20602;-74
2022/06/28 17:37:35;;;;;;;5.87;5.47;;;27.30;34.20;;;;;;10440556;28;20251;-75
2022/06/28 17:42:40;;;;;;;4.73;4.20;;;27.20;34.20;;;;;;10433131;28;20231;-75
2022/06/28 17:47:43;;;;;;;4.20;3.90;;;27.20;34.50;;;;;;10431076;28;20228;-75
2022/06/28 17:52:47;;;;;;;3.63;3.33;;;27.20;34.50;;;;;;10431166;28;20241;-75
2022/06/28 17:57:52;;;;;;;3.50;3.30;;;27.10;34.40;;;;;;10433972;28;20240;-75
2022/06/28 18:02:56;;;;;;;2.93;2.73;;;27.10;34.40;;;;;;10428293;28;20991;-75
2022/06/28 18:07:59;;;;;;;3.00;2.80;;;27.00;34.00;;;;;;10430365;28;20658;-75
2022/06/28 18:13:06;;;;;;;2.80;2.60;;;26.90;33.90;;;;;;10437297;28;20225;-75
2022/06/28 18:18:09;;;;;;;2.70;2.50;;;26.80;33.70;;;;;;10431667;28;20236;-75
2022/06/28 18:23:12;;;;;;;2.50;2.40;;;26.70;33.70;;;;;;10438193;28;20232;-75
2022/06/28 18:28:17;;;;;;;2.40;2.20;;;26.70;33.80;;;;;;10433231;28;20224;-75
2022/06/28 18:33:21;;;;;;;2.47;2.27;;;26.60;33.60;;;;;;10438714;28;20228;-75
2022/06/28 18:38:25;;;;;;;2.83;2.50;;;26.50;33.50;;;;;;10428587;28;20240;-74
2022/06/28 18:43:29;;;;;;;2.60;2.40;;;26.50;33.70;;;;;;10428664;28;20229;-75
2022/06/28 18:48:33;;;;;;;2.63;2.43;;;26.40;33.80;;;;;;10424830;28;20772;-74
2022/06/28 18:53:36;;;;;;;2.30;2.20;;;26.40;34.00;;;;;;10433236;28;20300;-75
2022/06/28 18:58:40;;;;;;;2.63;2.50;;;26.30;34.20;;;;;;10428409;28;20228;-75
2022/06/28 19:03:44;;;;;;;2.87;2.70;;;26.30;34.70;;;;;;10432441;28;20282;-74
2022/06/28 19:08:47;;;;;;;2.80;2.70;;;26.30;34.90;;;;;;10429097;28;20233;-73
2022/06/28 19:13:52;;;;;;;3.37;2.60;;;26.30;35.00;;;;;;10431203;28;20599;-74
2022/06/28 19:18:55;;;;;;;2.90;2.80;;;26.30;35.20;;;;;;10429047;28;20235;-74
2022/06/28 19:23:58;;;;;;;2.60;2.50;;;26.30;35.20;;;;;;10432268;28;20224;-74
2022/06/28 19:29:04;;;;;;;2.70;2.60;;;26.30;35.20;;;;;;10423226;28;20222;-73
2022/06/28 19:34:07;;;;;;;2.47;2.37;;;26.20;35.30;;;;;;10428864;28;20236;-73
2022/06/28 19:39:12;;;;;;;2.60;2.50;;;26.20;35.10;;;;;;10431447;28;20862;-73
2022/06/28 19:44:18;;;;;;;3.10;2.80;;;26.10;35.20;;;;;;10430172;28;20232;-73
2022/06/28 19:49:22;;;;;;;2.77;2.50;;;26.10;35.60;;;;;;10419344;28;20732;-73
2022/06/28 19:54:25;;;;;;;3.07;2.87;;;26.00;35.30;;;;;;10426704;28;20225;-72
2022/06/28 19:59:31;;;;;;;2.60;2.40;;;25.90;35.30;;;;;;10429673;28;20235;-72
2022/06/28 20:04:34;;;;;;;3.20;2.90;;;25.80;35.70;;;;;;10430649;28;20494;-73
2022/06/28 20:09:37;;;;;;;3.43;3.17;;;25.80;35.60;;;;;;10431933;28;20225;-73
2022/06/28 20:14:43;;;;;;;3.47;3.27;;;25.70;35.70;;;;;;10432829;28;20320;-72
2022/06/28 20:19:47;;;;;;;2.90;2.70;;;25.70;35.90;;;;;;10423792;28;20228;-73
2022/06/28 20:24:50;;;;;;;2.93;2.70;;;25.60;36.00;;;;;;10434476;28;20228;-73
2022/06/28 20:29:55;;;;;;;3.33;3.03;;;25.50;36.00;;;;;;10428350;28;20237;-73
2022/06/28 20:34:58;;;;;;;2.93;2.73;;;25.50;36.40;;;;;;10430390;28;21683;-73
2022/06/28 20:40:02;;;;;;;3.63;3.37;;;25.40;36.20;;;;;;10416889;28;20245;-73
2022/06/28 20:45:08;;;;;;;3.13;2.93;;;25.30;36.40;;;;;;10418372;28;20225;-73
2022/06/28 20:50:12;;;;;;;4.50;3.00;;;25.30;37.40;;;;;;10420104;28;20236;-73
2022/06/28 20:55:16;;;;;;;2.80;2.60;;;25.30;37.10;;;;;;10418030;28;20245;-73
2022/06/28 21:00:20;;;;;;;3.20;3.00;;;25.20;37.00;;;;;;10433019;28;20286;-73
2022/06/28 21:05:24;;;;;;;3.17;2.93;;;25.20;37.60;;;;;;10435646;28;20602;-73
2022/06/28 21:10:27;;;;;;;2.90;2.70;;;25.10;37.50;;;;;;10436119;28;20233;-73
2022/06/28 21:15:31;;;;;;;3.07;2.77;;;25.10;37.30;;;;;;10432062;28;20563;-73
2022/06/28 21:20:36;;;;;;;3.10;2.90;;;25.00;37.90;;;;;;10428757;28;20232;-73
2022/06/28 21:25:40;;;;;;;3.13;2.97;;;24.90;37.60;;;;;;10435145;28;20221;-73
2022/06/28 21:30:44;;;;;;;3.40;3.10;;;24.90;37.60;;;;;;10428592;28;20226;-72
2022/06/28 21:35:48;;;;;;;3.67;3.47;;;24.90;38.30;;;;;;10435904;28;20228;-73
2022/06/28 21:40:51;;;;;;;3.30;2.93;;;24.80;37.90;;;;;;10429957;28;20607;-73
2022/06/28 21:45:56;;;;;;;3.43;3.13;;;24.70;37.90;;;;;;10434573;28;20233;-73
2022/06/28 21:50:59;;;;;;;4.50;3.20;;;24.70;38.50;;;;;;10434820;28;20239;-73
2022/06/28 21:56:03;;;;;;;3.60;3.40;;;24.60;38.20;;;;;;10427591;28;20713;-73
2022/06/28 22:01:07;;;;;;;3.20;3.00;;;24.60;38.20;;;;;;10434998;28;20236;-73
2022/06/28 22:06:11;;;;;;;3.37;3.17;;;24.60;38.70;;;;;;10425717;28;20232;-73
2022/06/28 22:11:32;;;;;;;3.80;3.50;;;24.60;38.50;;;;;;10433089;28;20221;-73
2022/06/28 22:16:37;;;;;;;4.10;3.40;;;24.60;38.50;;;;;;10429417;28;20323;-73
2022/06/28 22:21:41;;;;;;;2.80;2.70;;;24.50;38.90;;;;;;10436942;28;20316;-73
2022/06/28 22:26:44;;;;;;;4.80;3.13;;;24.50;38.40;;;;;;10424576;28;20232;-73
2022/06/28 22:31:48;;;;;;;3.40;3.10;;;24.40;38.60;;;;;;10429697;28;20233;-73
2022/06/28 22:36:52;;;;;;;3.67;3.37;;;24.40;39.00;;;;;;10431311;28;20322;-73
2022/06/28 22:41:55;;;;;;;3.70;3.40;;;24.40;38.70;;;;;;10423211;28;20236;-73
2022/06/28 22:46:59;;;;;;;3.93;3.63;;;24.30;38.70;;;;;;10429869;28;20878;-73
2022/06/28 22:52:03;;;;;;;4.03;3.73;;;24.30;39.40;;;;;;10425317;28;20744;-73
2022/06/28 22:57:08;;;;;;;3.90;3.70;;;24.20;38.90;;;;;;10425733;28;20237;-72
2022/06/28 23:02:13;;;;;;;3.90;3.60;;;24.10;39.10;;;;;;10427556;28;20234;-73
2022/06/28 23:07:16;;;;;;;3.20;3.00;;;24.10;39.80;;;;;;10428457;28;20620;-73
2022/06/28 23:12:19;;;;;;;3.77;3.57;;;24.00;39.70;;;;;;10423071;28;20241;-73
2022/06/28 23:17:24;;;;;;;3.43;3.23;;;24.00;40.10;;;;;;10421272;28;20790;-73
2022/06/28 23:22:27;;;;;;;3.63;3.43;;;24.00;40.00;;;;;;10427268;28;20228;-73
2022/06/28 23:27:30;;;;;;;3.53;3.23;;;24.00;40.10;;;;;;10429544;28;20229;-72
2022/06/28 23:32:35;;;;;;;3.73;3.43;;;24.00;40.00;;;;;;10420259;28;20288;-73
2022/06/28 23:37:38;;;;;;;3.87;3.50;;;24.00;40.00;;;;;;10413854;28;20230;-73
2022/06/28 23:42:41;;;;;;;3.13;2.93;;;23.90;39.90;;;;;;10426070;28;20604;-72
2022/06/28 23:47:46;;;;;;;3.47;3.27;;;24.00;40.00;;;;;;10430724;28;20613;-73
2022/06/28 23:52:49;;;;;;;3.50;3.20;;;23.90;40.20;;;;;;10421078;28;20230;-73
2022/06/28 23:57:54;;;;;;;3.70;3.50;;;24.00;40.00;;;;;;10416051;28;20727;-73
